Pictor J — 5BEE3 — position and weather

sailwx.info

Track history (hours):
 
Tides and Currents Weather Stations Pressure Air Temp Water Temp Dewpoint Dewpoint Depression Visibility Wind Speed Wind Dir Waves Ship Positions

Pictor J

Last reported at 2018-Jun-21 23:34 UTC. Time now 2018-Jun-23 16:01 UTC.
Position N 55°37' E 015°21'.

Length 140 m; draft 7.4 m.

Type: Ship (hazmat cat A). MMSI: 209204000.

Date/timePositionNaut miles runAvg speedWind from/ knotsBaromVisibWave heightAir tempDewpointWater temp
2018-Jun-21 23:34N 55°37' E 015°21'216.6
2018-Jun-21 23:26N 55°35' E 015°18'716.9
2018-Jun-21 23:00N 55°32' E 015°06'817.0
2018-Jun-21 22:30N 55°28' E 014°54'816.9
2018-Jun-21 22:00N 55°23' E 014°41'816.6
2018-Jun-21 21:30N 55°17' E 014°31'816.4
2018-Jun-21 21:00N 55°11' E 014°22'816.0
2018-Jun-21 20:30N 55°05' E 014°13'1016.1
2018-Jun-21 19:54N 54°60' E 013°58'716.9
2018-Jun-21 19:29N 54°57' E 013°46'1317.0
2018-Jun-21 18:44N 54°53' E 013°26'3417.0
2018-Jun-21 16:45N 54°38' E 012°33'417.3
2018-Jun-21 16:30N 54°36' E 012°27'1616.3
2018-Jun-21 15:31N 54°25' E 012°07'217.4
2018-Jun-21 15:22N 54°25' E 012°02'617.5
2018-Jun-21 15:00N 54°25' E 011°51'917.8
2018-Jun-21 14:30N 54°27' E 011°37'917.2
2018-Jun-21 14:01N 54°31' E 011°24'816.9
2018-Jun-21 13:31N 54°35' E 011°10'917.1
2018-Jun-21 13:00N 54°35' E 010°56'816.8
2018-Jun-21 12:31N 54°34' E 010°41'816.6
2018-Jun-21 12:00N 54°31' E 010°28'32 6.9
2018-Jun-21 07:21N 54°17' E 009°38'3 4.3
2018-Jun-21 06:42N 54°14' E 009°36'1 7.1
2018-Jun-21 06:30N 54°13' E 009°35'7 8.2
2018-Jun-21 05:41N 54°10' E 009°25'3 8.3
2018-Jun-21 05:21N 54°09' E 009°21'3 8.1
2018-Jun-21 05:00N 54°06' E 009°20'4 8.4
2018-Jun-21 04:30N 54°02' E 009°18'4 7.9
2018-Jun-21 04:01N 53°58' E 009°16'4 8.3
2018-Jun-21 03:31N 53°55' E 009°11'2 3.6
2018-Jun-21 03:00N 53°54' E 009°09'0 0.3
2018-Jun-21 02:30N 53°54' E 009°09'1 1.6
2018-Jun-21 02:01N 53°53' E 009°07'3 5.8
2018-Jun-21 01:30N 53°52' E 009°03'613.0
2018-Jun-21 01:01N 53°50' E 008°52'611.7
2018-Jun-21 00:30N 53°52' E 008°43'612.8
2018-Jun-21 00:00N 53°57' E 008°36'713.6
2018-Jun-20 23:30N 53°59' E 008°25'714.3
2018-Jun-20 23:00N 53°60' E 008°13'715.0
2018-Jun-20 22:30N 53°58' E 008°01'713.6
2018-Jun-20 22:00N 53°52' E 007°54'714.1
2018-Jun-20 21:30N 53°50' E 008°05'917.0
2018-Jun-20 21:00N 53°44' E 008°15'917.6
2018-Jun-20 20:30N 53°38' E 008°26'4 7.5
2018-Jun-20 19:59N 53°35' E 008°31'0 0.0
2018-Jun-20 19:28N 53°35' E 008°31'0 0.0
2018-Jun-20 18:59N 53°35' E 008°31'0 0.0
2018-Jun-20 18:28N 53°35' E 008°31'0 0.0
2018-Jun-20 17:58N 53°35' E 008°31'0 0.0
2018-Jun-20 17:28N 53°35' E 008°31'0 0.0
2018-Jun-20 16:58N 53°35' E 008°31'0 0.0
2018-Jun-20 16:28N 53°35' E 008°31'0 0.0
2018-Jun-20 15:58N 53°35' E 008°31'0 0.0
2018-Jun-20 15:28N 53°35' E 008°31'0 0.0
2018-Jun-20 14:58N 53°35' E 008°31'0 0.0
2018-Jun-20 14:28N 53°35' E 008°31'0 0.0
2018-Jun-20 13:58N 53°35' E 008°31'0 0.0
2018-Jun-20 13:28N 53°35' E 008°31'0 0.0
2018-Jun-20 12:58N 53°35' E 008°31'0 0.0
2018-Jun-20 12:28N 53°35' E 008°31'0 0.0
2018-Jun-20 11:58N 53°35' E 008°31'0 0.0
2018-Jun-20 11:28N 53°35' E 008°31'0 0.0
2018-Jun-20 10:59N 53°35' E 008°31'0 0.0
2018-Jun-20 10:28N 53°35' E 008°31'0 0.0
2018-Jun-20 09:58N 53°35' E 008°31'0 0.0
2018-Jun-20 09:28N 53°35' E 008°31'0 0.0
2018-Jun-20 08:58N 53°35' E 008°31'0 0.0
2018-Jun-20 08:28N 53°35' E 008°31'0 0.0
2018-Jun-20 07:58N 53°35' E 008°31'0 0.0
2018-Jun-20 07:28N 53°35' E 008°31'0 0.0
2018-Jun-20 06:58N 53°35' E 008°31'0 0.0
2018-Jun-20 06:29N 53°35' E 008°31'0 0.0
2018-Jun-20 05:58N 53°35' E 008°31'0 0.0
2018-Jun-20 05:28N 53°35' E 008°31'0 0.0
2018-Jun-20 04:58N 53°35' E 008°31'0 0.0
2018-Jun-20 04:28N 53°35' E 008°31'0 0.0
2018-Jun-20 03:58N 53°35' E 008°31'0 0.0
2018-Jun-20 03:28N 53°35' E 008°31'0 0.0
2018-Jun-20 02:58N 53°35' E 008°31'0 0.0
2018-Jun-20 02:28N 53°35' E 008°31'0 0.0
2018-Jun-20 01:58N 53°35' E 008°31'0 0.0
2018-Jun-20 01:28N 53°35' E 008°31'0 0.0
2018-Jun-20 00:58N 53°35' E 008°31'0 0.0
2018-Jun-20 00:28N 53°35' E 008°31'0 0.0
2018-Jun-19 23:58N 53°35' E 008°31'0 0.0
2018-Jun-19 23:28N 53°35' E 008°31'0 0.0
2018-Jun-19 22:58N 53°35' E 008°31'0 0.0
2018-Jun-19 22:28N 53°35' E 008°31'0 0.0
2018-Jun-19 21:58N 53°35' E 008°31'0 0.0
2018-Jun-19 21:28N 53°35' E 008°31'0 0.0
2018-Jun-19 20:58N 53°35' E 008°31'1 2.6
2018-Jun-19 20:30N 53°36' E 008°30'5 9.2
2018-Jun-19 20:00N 53°39' E 008°24'611.7
2018-Jun-19 19:30N 53°43' E 008°17'611.7
2018-Jun-19 19:00N 53°47' E 008°09'611.7
2018-Jun-19 18:30N 53°51' E 008°02'611.2
2018-Jun-19 18:00N 53°53' E 007°53'2 3.8
2018-Jun-19 17:30N 53°55' E 007°54'3 6.3
2018-Jun-19 17:00N 53°57' E 007°58'3 6.4
2018-Jun-19 16:30N 53°59' E 008°02'4 8.2
2018-Jun-19 16:00N 54°00' E 008°08'510.7
2018-Jun-19 15:30N 53°60' E 008°17'612.8
2018-Jun-19 15:00N 53°59' E 008°28'611.8
2018-Jun-19 14:30N 53°57' E 008°38'511.0
2018-Jun-19 14:00N 53°53' E 008°43'510.3
2018-Jun-19 13:30N 53°50' E 008°51'612.0
2018-Jun-19 13:00N 53°51' E 009°01'510.2
2018-Jun-19 12:30N 53°54' E 009°09'0 0.2
2018-Jun-19 12:00N 53°54' E 009°09'0 0.0
2018-Jun-19 11:30N 53°54' E 009°09'1 1.9
2018-Jun-19 11:01N 53°54' E 009°10'0 0.9
2018-Jun-19 10:30N 53°55' E 009°11'0 0.1
2018-Jun-19 10:00N 53°55' E 009°10'0 0.0
2018-Jun-19 09:30N 53°55' E 009°10'0 1.0
2018-Jun-19 09:00N 53°55' E 009°11'2 4.2
2018-Jun-19 08:30N 53°57' E 009°13'0 0.8
2018-Jun-19 08:01N 53°57' E 009°14'2 4.8
2018-Jun-19 07:30N 53°59' E 009°16'3 6.5
2018-Jun-19 07:00N 54°02' E 009°18'3 7.0
2018-Jun-19 06:30N 54°05' E 009°19'3 6.7
2018-Jun-19 06:00N 54°08' E 009°21'3 6.9
2018-Jun-19 05:30N 54°10' E 009°26'3 7.0
2018-Jun-19 05:01N 54°11' E 009°31'1 2.9
2018-Jun-19 04:30N 54°12' E 009°33'2 3.5
2018-Jun-19 04:01N 54°13' E 009°36'3 6.5
2018-Jun-19 03:30N 54°16' E 009°38'3 6.5
2018-Jun-19 03:00N 54°18' E 009°42'3 6.5
2018-Jun-19 02:30N 54°21' E 009°45'3 6.6
2018-Jun-19 02:00N 54°22' E 009°51'13 3.4
2018-Jun-18 22:16N 54°24' E 010°12'310.8
2018-Jun-18 21:59N 54°27' E 010°14'510.5
2018-Jun-18 21:30N 54°30' E 010°20'4 7.2
2018-Jun-18 21:00N 54°32' E 010°26'2 3.2
2018-Jun-18 20:30N 54°33' E 010°28'1 1.2
2018-Jun-18 20:00N 54°33' E 010°29'1 1.2
2018-Jun-18 19:30N 54°33' E 010°30'1 1.3
2018-Jun-18 18:55N 54°34' E 010°31'1 1.4
2018-Jun-18 18:30N 54°34' E 010°32'1 1.4
2018-Jun-18 18:00N 54°34' E 010°33'1 1.3
2018-Jun-18 17:30N 54°34' E 010°34'1 1.3
2018-Jun-18 17:00N 54°34' E 010°35'1 1.3
2018-Jun-18 16:30N 54°35' E 010°36'1 1.3
2018-Jun-18 16:00N 54°35' E 010°38'1 1.2
2018-Jun-18 15:30N 54°35' E 010°39'1 1.6
2018-Jun-18 15:00N 54°35' E 010°40'1 2.7
2018-Jun-18 14:30N 54°35' E 010°42'2 3.2
2018-Jun-18 14:00N 54°35' E 010°45'2 3.1
2018-Jun-18 13:30N 54°35' E 010°48'2 3.5
2018-Jun-18 13:00N 54°35' E 010°51'4 7.2
2018-Jun-18 12:31N 54°36' E 010°57'612.9
2018-Jun-18 12:00N 54°36' E 011°08'713.3
2018-Jun-18 11:31N 54°34' E 011°19'713.8
2018-Jun-18 11:00N 54°31' E 011°29'713.2
2018-Jun-18 10:30N 54°28' E 011°40'713.2
2018-Jun-18 10:00N 54°27' E 011°51'613.2
2018-Jun-18 09:30N 54°27' E 012°02'611.3
2018-Jun-18 09:00N 54°28' E 012°11'713.5
2018-Jun-18 08:30N 54°35' E 012°16'8812.2
2018-Jun-18 01:13N 54°40' E 014°48'312.9
2018-Jun-18 00:59N 54°40' E 014°53'612.9
2018-Jun-18 00:30N 54°41' E 015°04'613.1
2018-Jun-18 00:00N 54°42' E 015°15'713.4
2018-Jun-17 23:30N 54°43' E 015°27'2013.5
2018-Jun-17 22:02N 54°46' E 016°01'413.3
2018-Jun-17 21:46N 54°47' E 016°07'3413.2
2018-Jun-17 19:11N 54°53' E 017°05'213.2
2018-Jun-17 19:00N 54°53' E 017°09'1013.2
2018-Jun-17 18:15N 54°56' E 017°26'813.3
2018-Jun-17 17:40N 54°59' E 017°39'313.0
2018-Jun-17 17:26N 55°00' E 017°43'1012.8
2018-Jun-17 16:41N 55°04' E 017°59'212.7
2018-Jun-17 16:30N 55°05' E 018°02'612.7
2018-Jun-17 16:00N 55°08' E 018°13'713.0
2018-Jun-17 15:30N 55°10' E 018°23'612.9
2018-Jun-17 15:00N 55°13' E 018°33'712.9
2018-Jun-17 14:30N 55°14' E 018°44'713.1
2018-Jun-17 14:00N 55°17' E 018°55'713.3
2018-Jun-17 13:30N 55°20' E 019°06'713.3
2018-Jun-17 13:00N 55°22' E 019°16'713.2
2018-Jun-17 12:30N 55°25' E 019°27'613.2
2018-Jun-17 12:00N 55°27' E 019°38'713.3
2018-Jun-17 11:28N 55°30' E 019°49'2213.2
2018-Jun-17 09:47N 55°38' E 020°26'413.2
2018-Jun-17 09:30N 55°40' E 020°32'713.0
2018-Jun-17 09:00N 55°42' E 020°43'612.9
2018-Jun-17 08:30N 55°44' E 020°53'611.9
2018-Jun-17 08:00N 55°44' E 021°04'4 7.5
2018-Jun-17 07:29N 55°41' E 021°08'0 0.5
2018-Jun-17 07:01N 55°40' E 021°09'0 0.0
2018-Jun-17 06:30N 55°40' E 021°09'0 0.0
2018-Jun-17 06:00N 55°40' E 021°09'0 0.0
2018-Jun-17 05:29N 55°40' E 021°09'0 0.0
2018-Jun-17 04:59N 55°40' E 021°09'0 0.0
2018-Jun-17 04:30N 55°40' E 021°09'0 0.0
2018-Jun-17 04:00N 55°40' E 021°09'0 0.0
2018-Jun-17 03:30N 55°40' E 021°09'0 0.0
2018-Jun-17 03:00N 55°40' E 021°09'0 0.0
2018-Jun-17 02:28N 55°40' E 021°09'0 0.0
2018-Jun-17 02:00N 55°40' E 021°09'0 0.0
2018-Jun-17 01:30N 55°40' E 021°09'0 0.0
2018-Jun-17 01:00N 55°40' E 021°09'0 0.0
2018-Jun-17 00:29N 55°40' E 021°09'0 0.0
2018-Jun-17 00:00N 55°40' E 021°09'0 0.0
2018-Jun-16 23:30N 55°40' E 021°09'0 0.0
2018-Jun-16 19:37N 55°40' E 021°09'0 0.0
2018-Jun-16 18:35N 55°40' E 021°09'0 0.1
2018-Jun-16 18:30N 55°40' E 021°09'0 0.0
2018-Jun-16 18:00N 55°40' E 021°09'0 0.0
2018-Jun-16 16:31N 55°40' E 021°09'0 0.0
2018-Jun-16 16:22N 55°40' E 021°09'2 0.1
2018-Jun-16 01:20N 55°39' E 021°10'0 0.0
2018-Jun-16 00:11N 55°39' E 021°10'0 0.4
2018-Jun-16 00:00N 55°39' E 021°10'1 2.1
2018-Jun-15 23:30N 55°40' E 021°09'6 6.6
2018-Jun-15 22:38N 55°43' E 021°01'110.2
2018-Jun-15 22:31N 55°43' E 020°59'611.3
2018-Jun-15 21:59N 55°39' E 020°51'511.2
2018-Jun-15 21:30N 55°35' E 020°44'611.2
2018-Jun-15 21:00N 55°31' E 020°37'611.1
2018-Jun-15 20:30N 55°27' E 020°30'611.3
2018-Jun-15 20:00N 55°23' E 020°23'611.1
2018-Jun-15 19:28N 55°19' E 020°15'611.2
2018-Jun-15 18:59N 55°15' E 020°09'511.1
2018-Jun-15 18:31N 55°12' E 020°02'611.2
2018-Jun-15 18:00N 55°08' E 019°55'611.2
2018-Jun-15 17:30N 55°04' E 019°48'611.1
2018-Jun-15 17:00N 55°00' E 019°41'510.9
2018-Jun-15 16:30N 54°56' E 019°34'510.8
2018-Jun-15 16:01N 54°53' E 019°27'510.8
2018-Jun-15 15:30N 54°49' E 019°20'510.7
2018-Jun-15 15:01N 54°45' E 019°13'510.6
2018-Jun-15 14:30N 54°42' E 019°07'510.9
2018-Jun-15 14:01N 54°36' E 019°07'611.1
2018-Jun-15 13:30N 54°31' E 019°03'511.1
2018-Jun-15 13:01N 54°26' E 018°58'611.4
2018-Jun-15 12:31N 54°25' E 018°49'4 7.8
2018-Jun-15 12:00N 54°23' E 018°43'0 0.2
2018-Jun-15 11:31N 54°23' E 018°43'0 0.0
2018-Jun-15 11:01N 54°23' E 018°43'0 0.0
2018-Jun-15 10:31N 54°23' E 018°43'0 0.0
2018-Jun-15 10:01N 54°23' E 018°43'0 0.0
2018-Jun-15 09:31N 54°23' E 018°43'0 0.0
2018-Jun-15 09:01N 54°23' E 018°43'0 0.0
2018-Jun-15 08:31N 54°23' E 018°43'0 0.0
2018-Jun-15 08:01N 54°23' E 018°43'0 0.0
2018-Jun-15 07:31N 54°23' E 018°43'0 0.0
2018-Jun-15 07:01N 54°23' E 018°43'0 0.0
2018-Jun-15 06:31N 54°23' E 018°43'0 0.0
2018-Jun-15 06:01N 54°23' E 018°43'0 0.0
2018-Jun-15 05:31N 54°23' E 018°43'0 0.0
2018-Jun-15 05:01N 54°23' E 018°43'0 0.0
2018-Jun-15 04:31N 54°23' E 018°43'0 0.0
2018-Jun-15 04:01N 54°23' E 018°43'0 0.0
2018-Jun-15 03:31N 54°23' E 018°43'0 0.0
2018-Jun-15 03:01N 54°23' E 018°43'0 0.0
2018-Jun-15 02:31N 54°23' E 018°43'0 0.0
2018-Jun-15 02:01N 54°23' E 018°43'0 0.0
2018-Jun-15 01:31N 54°23' E 018°43'0 0.0
2018-Jun-15 01:01N 54°23' E 018°43'0 0.0
2018-Jun-15 00:31N 54°23' E 018°43'0 0.0
2018-Jun-15 00:01N 54°23' E 018°43'0 0.0
2018-Jun-14 23:31N 54°23' E 018°43'0 0.0
2018-Jun-14 23:01N 54°23' E 018°43'0 0.0
2018-Jun-14 22:31N 54°23' E 018°43'0 0.0
2018-Jun-14 22:01N 54°23' E 018°43'0 0.0
2018-Jun-14 21:31N 54°23' E 018°43'0 0.0
2018-Jun-14 21:01N 54°23' E 018°43'0 0.0
2018-Jun-14 20:27N 54°23' E 018°43'0 0.0
2018-Jun-14 20:01N 54°23' E 018°43'0 0.0
2018-Jun-14 19:31N 54°23' E 018°43'0 0.0
2018-Jun-14 19:00N 54°23' E 018°43'0 0.0
2018-Jun-14 18:31N 54°23' E 018°43'0 0.0
2018-Jun-14 18:00N 54°23' E 018°43'0 0.0
2018-Jun-14 17:30N 54°23' E 018°43'0 0.0
2018-Jun-14 17:00N 54°23' E 018°43'0 0.0
2018-Jun-14 16:27N 54°23' E 018°43'0 0.0
2018-Jun-14 16:01N 54°23' E 018°43'0 0.0
2018-Jun-14 15:30N 54°23' E 018°43'0 0.0
2018-Jun-14 15:01N 54°23' E 018°43'0 0.0
2018-Jun-14 14:30N 54°23' E 018°43'0 0.0
2018-Jun-14 14:00N 54°23' E 018°43'0 0.0
2018-Jun-14 13:30N 54°23' E 018°43'0 0.0
2018-Jun-14 13:00N 54°23' E 018°43'0 0.0
2018-Jun-14 12:30N 54°23' E 018°43'0 0.0
2018-Jun-14 12:00N 54°23' E 018°43'0 0.0
2018-Jun-14 11:30N 54°23' E 018°43'0 0.0
2018-Jun-14 11:00N 54°23' E 018°43'0 0.0
2018-Jun-14 10:30N 54°23' E 018°43'0 0.0
2018-Jun-14 10:00N 54°23' E 018°43'0 0.0
2018-Jun-14 09:30N 54°23' E 018°43'0 0.0
2018-Jun-14 09:00N 54°23' E 018°43'0 0.0
2018-Jun-14 08:30N 54°23' E 018°43'0 0.0
2018-Jun-14 08:00N 54°23' E 018°43'0 0.0
2018-Jun-14 07:30N 54°23' E 018°43'0 0.0
2018-Jun-14 07:00N 54°23' E 018°43'0 0.0
2018-Jun-14 06:30N 54°23' E 018°43'0 0.0
2018-Jun-14 06:00N 54°23' E 018°43'0 0.0
2018-Jun-14 05:30N 54°23' E 018°43'0 0.0
2018-Jun-14 05:00N 54°23' E 018°43'0 0.0
2018-Jun-14 04:30N 54°23' E 018°43'0 0.0
2018-Jun-14 04:00N 54°23' E 018°43'0 0.0
2018-Jun-14 03:30N 54°23' E 018°43'0 0.0
2018-Jun-14 03:00N 54°23' E 018°43'0 0.0
2018-Jun-14 02:30N 54°23' E 018°43'0 0.0
2018-Jun-14 02:00N 54°23' E 018°43'0 0.0
2018-Jun-14 01:30N 54°23' E 018°43'0 0.0
2018-Jun-14 01:00N 54°23' E 018°43'0 0.0
2018-Jun-14 00:30N 54°23' E 018°43'0 0.0
2018-Jun-14 00:00N 54°23' E 018°43'0 0.0
2018-Jun-13 23:30N 54°23' E 018°43'0 0.0
2018-Jun-13 23:00N 54°23' E 018°43'0 0.0
2018-Jun-13 22:30N 54°23' E 018°43'0 0.0
2018-Jun-13 22:00N 54°23' E 018°43'0 0.0
2018-Jun-13 21:30N 54°23' E 018°43'0 0.0
2018-Jun-13 21:00N 54°23' E 018°43'0 0.0
2018-Jun-13 20:30N 54°23' E 018°43'0 0.0
2018-Jun-13 20:00N 54°23' E 018°43'0 0.0
2018-Jun-13 19:30N 54°23' E 018°43'0 0.0
2018-Jun-13 19:00N 54°23' E 018°43'0 0.0
2018-Jun-13 18:30N 54°23' E 018°43'0 0.0
2018-Jun-13 18:00N 54°23' E 018°43'0 0.0
2018-Jun-13 17:30N 54°23' E 018°43'0 0.0
2018-Jun-13 17:00N 54°23' E 018°43'0 0.0
2018-Jun-13 16:30N 54°23' E 018°43'2 3.3
2018-Jun-13 16:00N 54°24' E 018°45'4 9.0
2018-Jun-13 15:30N 54°26' E 018°52'713.6
2018-Jun-13 15:00N 54°31' E 019°00'612.6
2018-Jun-13 14:30N 54°37' E 019°04'4 8.7
2018-Jun-13 14:00N 54°41' E 019°05'5 9.6
2018-Jun-13 13:30N 54°45' E 019°11'5 9.5
2018-Jun-13 13:00N 54°48' E 019°17'5 9.4
2018-Jun-13 12:30N 54°51' E 019°23'5 9.4
2018-Jun-13 11:59N 54°55' E 019°29'5 9.3
2018-Jun-13 11:30N 54°58' E 019°35'5 9.3
2018-Jun-13 11:00N 55°01' E 019°40'7 9.3
2018-Jun-13 10:12N 55°06' E 019°50'2 9.4
2018-Jun-13 09:59N 55°08' E 019°52'38 1.1
2018-Jun-12 00:14N 55°38' E 020°34'415.7
2018-Jun-12 00:00N 55°36' E 020°28'  
Track history (hours):
 
Tides and Currents Weather Stations Pressure Air Temp Water Temp Dewpoint Dewpoint Depression Visibility Wind Speed Wind Dir Waves Ship Positions

Pictor J

Last reported at 2018-Jun-21 23:34 UTC. Time now 2018-Jun-23 16:01 UTC.
Position N 55°37' E 015°21'.

Length 140 m; draft 7.4 m.

Type: Ship (hazmat cat A). MMSI: 209204000.

Date/timePositionNaut miles runAvg speedWind from/ knotsBaromVisibWave heightAir tempDewpointWater temp
2018-Jun-21 23:34N 55°37' E 015°21'216.6
2018-Jun-21 23:26N 55°35' E 015°18'716.9
2018-Jun-21 23:00N 55°32' E 015°06'817.0
2018-Jun-21 22:30N 55°28' E 014°54'816.9
2018-Jun-21 22:00N 55°23' E 014°41'816.6
2018-Jun-21 21:30N 55°17' E 014°31'816.4
2018-Jun-21 21:00N 55°11' E 014°22'816.0
2018-Jun-21 20:30N 55°05' E 014°13'1016.1
2018-Jun-21 19:54N 54°60' E 013°58'716.9
2018-Jun-21 19:29N 54°57' E 013°46'1317.0
2018-Jun-21 18:44N 54°53' E 013°26'3417.0
2018-Jun-21 16:45N 54°38' E 012°33'417.3
2018-Jun-21 16:30N 54°36' E 012°27'1616.3
2018-Jun-21 15:31N 54°25' E 012°07'217.4
2018-Jun-21 15:22N 54°25' E 012°02'617.5
2018-Jun-21 15:00N 54°25' E 011°51'917.8
2018-Jun-21 14:30N 54°27' E 011°37'917.2
2018-Jun-21 14:01N 54°31' E 011°24'816.9
2018-Jun-21 13:31N 54°35' E 011°10'917.1
2018-Jun-21 13:00N 54°35' E 010°56'816.8
2018-Jun-21 12:31N 54°34' E 010°41'816.6
2018-Jun-21 12:00N 54°31' E 010°28'32 6.9
2018-Jun-21 07:21N 54°17' E 009°38'3 4.3
2018-Jun-21 06:42N 54°14' E 009°36'1 7.1
2018-Jun-21 06:30N 54°13' E 009°35'7 8.2
2018-Jun-21 05:41N 54°10' E 009°25'3 8.3
2018-Jun-21 05:21N 54°09' E 009°21'3 8.1
2018-Jun-21 05:00N 54°06' E 009°20'4 8.4
2018-Jun-21 04:30N 54°02' E 009°18'4 7.9
2018-Jun-21 04:01N 53°58' E 009°16'4 8.3
2018-Jun-21 03:31N 53°55' E 009°11'2 3.6
2018-Jun-21 03:00N 53°54' E 009°09'0 0.3
2018-Jun-21 02:30N 53°54' E 009°09'1 1.6
2018-Jun-21 02:01N 53°53' E 009°07'3 5.8
2018-Jun-21 01:30N 53°52' E 009°03'613.0
2018-Jun-21 01:01N 53°50' E 008°52'611.7
2018-Jun-21 00:30N 53°52' E 008°43'612.8
2018-Jun-21 00:00N 53°57' E 008°36'713.6
2018-Jun-20 23:30N 53°59' E 008°25'714.3
2018-Jun-20 23:00N 53°60' E 008°13'715.0
2018-Jun-20 22:30N 53°58' E 008°01'713.6
2018-Jun-20 22:00N 53°52' E 007°54'714.1
2018-Jun-20 21:30N 53°50' E 008°05'917.0
2018-Jun-20 21:00N 53°44' E 008°15'917.6
2018-Jun-20 20:30N 53°38' E 008°26'4 7.5
2018-Jun-20 19:59N 53°35' E 008°31'0 0.0
2018-Jun-20 19:28N 53°35' E 008°31'0 0.0
2018-Jun-20 18:59N 53°35' E 008°31'0 0.0
2018-Jun-20 18:28N 53°35' E 008°31'0 0.0
2018-Jun-20 17:58N 53°35' E 008°31'0 0.0
2018-Jun-20 17:28N 53°35' E 008°31'0 0.0
2018-Jun-20 16:58N 53°35' E 008°31'0 0.0
2018-Jun-20 16:28N 53°35' E 008°31'0 0.0
2018-Jun-20 15:58N 53°35' E 008°31'0 0.0
2018-Jun-20 15:28N 53°35' E 008°31'0 0.0
2018-Jun-20 14:58N 53°35' E 008°31'0 0.0
2018-Jun-20 14:28N 53°35' E 008°31'0 0.0
2018-Jun-20 13:58N 53°35' E 008°31'0 0.0
2018-Jun-20 13:28N 53°35' E 008°31'0 0.0
2018-Jun-20 12:58N 53°35' E 008°31'0 0.0
2018-Jun-20 12:28N 53°35' E 008°31'0 0.0
2018-Jun-20 11:58N 53°35' E 008°31'0 0.0
2018-Jun-20 11:28N 53°35' E 008°31'0 0.0
2018-Jun-20 10:59N 53°35' E 008°31'0 0.0
2018-Jun-20 10:28N 53°35' E 008°31'0 0.0
2018-Jun-20 09:58N 53°35' E 008°31'0 0.0
2018-Jun-20 09:28N 53°35' E 008°31'0 0.0
2018-Jun-20 08:58N 53°35' E 008°31'0 0.0
2018-Jun-20 08:28N 53°35' E 008°31'0 0.0
2018-Jun-20 07:58N 53°35' E 008°31'0 0.0
2018-Jun-20 07:28N 53°35' E 008°31'0 0.0
2018-Jun-20 06:58N 53°35' E 008°31'0 0.0
2018-Jun-20 06:29N 53°35' E 008°31'0 0.0
2018-Jun-20 05:58N 53°35' E 008°31'0 0.0
2018-Jun-20 05:28N 53°35' E 008°31'0 0.0
2018-Jun-20 04:58N 53°35' E 008°31'0 0.0
2018-Jun-20 04:28N 53°35' E 008°31'0 0.0
2018-Jun-20 03:58N 53°35' E 008°31'0 0.0
2018-Jun-20 03:28N 53°35' E 008°31'0 0.0
2018-Jun-20 02:58N 53°35' E 008°31'0 0.0
2018-Jun-20 02:28N 53°35' E 008°31'0 0.0
2018-Jun-20 01:58N 53°35' E 008°31'0 0.0
2018-Jun-20 01:28N 53°35' E 008°31'0 0.0
2018-Jun-20 00:58N 53°35' E 008°31'0 0.0
2018-Jun-20 00:28N 53°35' E 008°31'0 0.0
2018-Jun-19 23:58N 53°35' E 008°31'0 0.0
2018-Jun-19 23:28N 53°35' E 008°31'0 0.0
2018-Jun-19 22:58N 53°35' E 008°31'0 0.0
2018-Jun-19 22:28N 53°35' E 008°31'0 0.0
2018-Jun-19 21:58N 53°35' E 008°31'0 0.0
2018-Jun-19 21:28N 53°35' E 008°31'0 0.0
2018-Jun-19 20:58N 53°35' E 008°31'1 2.6
2018-Jun-19 20:30N 53°36' E 008°30'5 9.2
2018-Jun-19 20:00N 53°39' E 008°24'611.7
2018-Jun-19 19:30N 53°43' E 008°17'611.7
2018-Jun-19 19:00N 53°47' E 008°09'611.7
2018-Jun-19 18:30N 53°51' E 008°02'611.2
2018-Jun-19 18:00N 53°53' E 007°53'2 3.8
2018-Jun-19 17:30N 53°55' E 007°54'3 6.3
2018-Jun-19 17:00N 53°57' E 007°58'3 6.4
2018-Jun-19 16:30N 53°59' E 008°02'4 8.2
2018-Jun-19 16:00N 54°00' E 008°08'510.7
2018-Jun-19 15:30N 53°60' E 008°17'612.8
2018-Jun-19 15:00N 53°59' E 008°28'611.8
2018-Jun-19 14:30N 53°57' E 008°38'511.0
2018-Jun-19 14:00N 53°53' E 008°43'510.3
2018-Jun-19 13:30N 53°50' E 008°51'612.0
2018-Jun-19 13:00N 53°51' E 009°01'510.2
2018-Jun-19 12:30N 53°54' E 009°09'0 0.2
2018-Jun-19 12:00N 53°54' E 009°09'0 0.0
2018-Jun-19 11:30N 53°54' E 009°09'1 1.9
2018-Jun-19 11:01N 53°54' E 009°10'0 0.9
2018-Jun-19 10:30N 53°55' E 009°11'0 0.1
2018-Jun-19 10:00N 53°55' E 009°10'0 0.0
2018-Jun-19 09:30N 53°55' E 009°10'0 1.0
2018-Jun-19 09:00N 53°55' E 009°11'2 4.2
2018-Jun-19 08:30N 53°57' E 009°13'0 0.8
2018-Jun-19 08:01N 53°57' E 009°14'2 4.8
2018-Jun-19 07:30N 53°59' E 009°16'3 6.5
2018-Jun-19 07:00N 54°02' E 009°18'3 7.0
2018-Jun-19 06:30N 54°05' E 009°19'3 6.7
2018-Jun-19 06:00N 54°08' E 009°21'3 6.9
2018-Jun-19 05:30N 54°10' E 009°26'3 7.0
2018-Jun-19 05:01N 54°11' E 009°31'1 2.9
2018-Jun-19 04:30N 54°12' E 009°33'2 3.5
2018-Jun-19 04:01N 54°13' E 009°36'3 6.5
2018-Jun-19 03:30N 54°16' E 009°38'3 6.5
2018-Jun-19 03:00N 54°18' E 009°42'3 6.5
2018-Jun-19 02:30N 54°21' E 009°45'3 6.6
2018-Jun-19 02:00N 54°22' E 009°51'13 3.4
2018-Jun-18 22:16N 54°24' E 010°12'310.8
2018-Jun-18 21:59N 54°27' E 010°14'510.5
2018-Jun-18 21:30N 54°30' E 010°20'4 7.2
2018-Jun-18 21:00N 54°32' E 010°26'2 3.2
2018-Jun-18 20:30N 54°33' E 010°28'1 1.2
2018-Jun-18 20:00N 54°33' E 010°29'1 1.2
2018-Jun-18 19:30N 54°33' E 010°30'1 1.3
2018-Jun-18 18:55N 54°34' E 010°31'1 1.4
2018-Jun-18 18:30N 54°34' E 010°32'1 1.4
2018-Jun-18 18:00N 54°34' E 010°33'1 1.3
2018-Jun-18 17:30N 54°34' E 010°34'1 1.3
2018-Jun-18 17:00N 54°34' E 010°35'1 1.3
2018-Jun-18 16:30N 54°35' E 010°36'1 1.3
2018-Jun-18 16:00N 54°35' E 010°38'1 1.2
2018-Jun-18 15:30N 54°35' E 010°39'1 1.6
2018-Jun-18 15:00N 54°35' E 010°40'1 2.7
2018-Jun-18 14:30N 54°35' E 010°42'2 3.2
2018-Jun-18 14:00N 54°35' E 010°45'2 3.1
2018-Jun-18 13:30N 54°35' E 010°48'2 3.5
2018-Jun-18 13:00N 54°35' E 010°51'4 7.2
2018-Jun-18 12:31N 54°36' E 010°57'612.9
2018-Jun-18 12:00N 54°36' E 011°08'713.3
2018-Jun-18 11:31N 54°34' E 011°19'713.8
2018-Jun-18 11:00N 54°31' E 011°29'713.2
2018-Jun-18 10:30N 54°28' E 011°40'713.2
2018-Jun-18 10:00N 54°27' E 011°51'613.2
2018-Jun-18 09:30N 54°27' E 012°02'611.3
2018-Jun-18 09:00N 54°28' E 012°11'713.5
2018-Jun-18 08:30N 54°35' E 012°16'8812.2
2018-Jun-18 01:13N 54°40' E 014°48'312.9
2018-Jun-18 00:59N 54°40' E 014°53'612.9
2018-Jun-18 00:30N 54°41' E 015°04'613.1
2018-Jun-18 00:00N 54°42' E 015°15'713.4
2018-Jun-17 23:30N 54°43' E 015°27'2013.5
2018-Jun-17 22:02N 54°46' E 016°01'413.3
2018-Jun-17 21:46N 54°47' E 016°07'3413.2
2018-Jun-17 19:11N 54°53' E 017°05'213.2
2018-Jun-17 19:00N 54°53' E 017°09'1013.2
2018-Jun-17 18:15N 54°56' E 017°26'813.3
2018-Jun-17 17:40N 54°59' E 017°39'313.0
2018-Jun-17 17:26N 55°00' E 017°43'1012.8
2018-Jun-17 16:41N 55°04' E 017°59'212.7
2018-Jun-17 16:30N 55°05' E 018°02'612.7
2018-Jun-17 16:00N 55°08' E 018°13'713.0
2018-Jun-17 15:30N 55°10' E 018°23'612.9
2018-Jun-17 15:00N 55°13' E 018°33'712.9
2018-Jun-17 14:30N 55°14' E 018°44'713.1
2018-Jun-17 14:00N 55°17' E 018°55'713.3
2018-Jun-17 13:30N 55°20' E 019°06'713.3
2018-Jun-17 13:00N 55°22' E 019°16'713.2
2018-Jun-17 12:30N 55°25' E 019°27'613.2
2018-Jun-17 12:00N 55°27' E 019°38'713.3
2018-Jun-17 11:28N 55°30' E 019°49'2213.2
2018-Jun-17 09:47N 55°38' E 020°26'413.2
2018-Jun-17 09:30N 55°40' E 020°32'713.0
2018-Jun-17 09:00N 55°42' E 020°43'612.9
2018-Jun-17 08:30N 55°44' E 020°53'611.9
2018-Jun-17 08:00N 55°44' E 021°04'4 7.5
2018-Jun-17 07:29N 55°41' E 021°08'0 0.5
2018-Jun-17 07:01N 55°40' E 021°09'0 0.0
2018-Jun-17 06:30N 55°40' E 021°09'0 0.0
2018-Jun-17 06:00N 55°40' E 021°09'0 0.0
2018-Jun-17 05:29N 55°40' E 021°09'0 0.0
2018-Jun-17 04:59N 55°40' E 021°09'0 0.0
2018-Jun-17 04:30N 55°40' E 021°09'0 0.0
2018-Jun-17 04:00N 55°40' E 021°09'0 0.0
2018-Jun-17 03:30N 55°40' E 021°09'0 0.0
2018-Jun-17 03:00N 55°40' E 021°09'0 0.0
2018-Jun-17 02:28N 55°40' E 021°09'0 0.0
2018-Jun-17 02:00N 55°40' E 021°09'0 0.0
2018-Jun-17 01:30N 55°40' E 021°09'0 0.0
2018-Jun-17 01:00N 55°40' E 021°09'0 0.0
2018-Jun-17 00:29N 55°40' E 021°09'0 0.0
2018-Jun-17 00:00N 55°40' E 021°09'0 0.0
2018-Jun-16 23:30N 55°40' E 021°09'0 0.0
2018-Jun-16 19:37N 55°40' E 021°09'0 0.0
2018-Jun-16 18:35N 55°40' E 021°09'0 0.1
2018-Jun-16 18:30N 55°40' E 021°09'0 0.0
2018-Jun-16 18:00N 55°40' E 021°09'0 0.0
2018-Jun-16 16:31N 55°40' E 021°09'0 0.0
2018-Jun-16 16:22N 55°40' E 021°09'2 0.1
2018-Jun-16 01:20N 55°39' E 021°10'0 0.0
2018-Jun-16 00:11N 55°39' E 021°10'0 0.4
2018-Jun-16 00:00N 55°39' E 021°10'1 2.1
2018-Jun-15 23:30N 55°40' E 021°09'6 6.6
2018-Jun-15 22:38N 55°43' E 021°01'110.2
2018-Jun-15 22:31N 55°43' E 020°59'611.3
2018-Jun-15 21:59N 55°39' E 020°51'511.2
2018-Jun-15 21:30N 55°35' E 020°44'611.2
2018-Jun-15 21:00N 55°31' E 020°37'611.1
2018-Jun-15 20:30N 55°27' E 020°30'611.3
2018-Jun-15 20:00N 55°23' E 020°23'611.1
2018-Jun-15 19:28N 55°19' E 020°15'611.2
2018-Jun-15 18:59N 55°15' E 020°09'511.1
2018-Jun-15 18:31N 55°12' E 020°02'611.2
2018-Jun-15 18:00N 55°08' E 019°55'611.2
2018-Jun-15 17:30N 55°04' E 019°48'611.1
2018-Jun-15 17:00N 55°00' E 019°41'510.9
2018-Jun-15 16:30N 54°56' E 019°34'510.8
2018-Jun-15 16:01N 54°53' E 019°27'510.8
2018-Jun-15 15:30N 54°49' E 019°20'510.7
2018-Jun-15 15:01N 54°45' E 019°13'510.6
2018-Jun-15 14:30N 54°42' E 019°07'510.9
2018-Jun-15 14:01N 54°36' E 019°07'611.1
2018-Jun-15 13:30N 54°31' E 019°03'511.1
2018-Jun-15 13:01N 54°26' E 018°58'611.4
2018-Jun-15 12:31N 54°25' E 018°49'4 7.8
2018-Jun-15 12:00N 54°23' E 018°43'0 0.2
2018-Jun-15 11:31N 54°23' E 018°43'0 0.0
2018-Jun-15 11:01N 54°23' E 018°43'0 0.0
2018-Jun-15 10:31N 54°23' E 018°43'0 0.0
2018-Jun-15 10:01N 54°23' E 018°43'0 0.0
2018-Jun-15 09:31N 54°23' E 018°43'0 0.0
2018-Jun-15 09:01N 54°23' E 018°43'0 0.0
2018-Jun-15 08:31N 54°23' E 018°43'0 0.0
2018-Jun-15 08:01N 54°23' E 018°43'0 0.0
2018-Jun-15 07:31N 54°23' E 018°43'0 0.0
2018-Jun-15 07:01N 54°23' E 018°43'0 0.0
2018-Jun-15 06:31N 54°23' E 018°43'0 0.0
2018-Jun-15 06:01N 54°23' E 018°43'0 0.0
2018-Jun-15 05:31N 54°23' E 018°43'0 0.0
2018-Jun-15 05:01N 54°23' E 018°43'0 0.0
2018-Jun-15 04:31N 54°23' E 018°43'0 0.0
2018-Jun-15 04:01N 54°23' E 018°43'0 0.0
2018-Jun-15 03:31N 54°23' E 018°43'0 0.0
2018-Jun-15 03:01N 54°23' E 018°43'0 0.0
2018-Jun-15 02:31N 54°23' E 018°43'0 0.0
2018-Jun-15 02:01N 54°23' E 018°43'0 0.0
2018-Jun-15 01:31N 54°23' E 018°43'0 0.0
2018-Jun-15 01:01N 54°23' E 018°43'0 0.0
2018-Jun-15 00:31N 54°23' E 018°43'0 0.0
2018-Jun-15 00:01N 54°23' E 018°43'0 0.0
2018-Jun-14 23:31N 54°23' E 018°43'0 0.0
2018-Jun-14 23:01N 54°23' E 018°43'0 0.0
2018-Jun-14 22:31N 54°23' E 018°43'0 0.0
2018-Jun-14 22:01N 54°23' E 018°43'0 0.0
2018-Jun-14 21:31N 54°23' E 018°43'0 0.0
2018-Jun-14 21:01N 54°23' E 018°43'0 0.0
2018-Jun-14 20:27N 54°23' E 018°43'0 0.0
2018-Jun-14 20:01N 54°23' E 018°43'0 0.0
2018-Jun-14 19:31N 54°23' E 018°43'0 0.0
2018-Jun-14 19:00N 54°23' E 018°43'0 0.0
2018-Jun-14 18:31N 54°23' E 018°43'0 0.0
2018-Jun-14 18:00N 54°23' E 018°43'0 0.0
2018-Jun-14 17:30N 54°23' E 018°43'0 0.0
2018-Jun-14 17:00N 54°23' E 018°43'0 0.0
2018-Jun-14 16:27N 54°23' E 018°43'0 0.0
2018-Jun-14 16:01N 54°23' E 018°43'0 0.0
2018-Jun-14 15:30N 54°23' E 018°43'0 0.0
2018-Jun-14 15:01N 54°23' E 018°43'0 0.0
2018-Jun-14 14:30N 54°23' E 018°43'0 0.0
2018-Jun-14 14:00N 54°23' E 018°43'0 0.0
2018-Jun-14 13:30N 54°23' E 018°43'0 0.0
2018-Jun-14 13:00N 54°23' E 018°43'0 0.0
2018-Jun-14 12:30N 54°23' E 018°43'0 0.0
2018-Jun-14 12:00N 54°23' E 018°43'0 0.0
2018-Jun-14 11:30N 54°23' E 018°43'0 0.0
2018-Jun-14 11:00N 54°23' E 018°43'0 0.0
2018-Jun-14 10:30N 54°23' E 018°43'0 0.0
2018-Jun-14 10:00N 54°23' E 018°43'0 0.0
2018-Jun-14 09:30N 54°23' E 018°43'0 0.0
2018-Jun-14 09:00N 54°23' E 018°43'0 0.0
2018-Jun-14 08:30N 54°23' E 018°43'0 0.0
2018-Jun-14 08:00N 54°23' E 018°43'0 0.0
2018-Jun-14 07:30N 54°23' E 018°43'0 0.0
2018-Jun-14 07:00N 54°23' E 018°43'0 0.0
2018-Jun-14 06:30N 54°23' E 018°43'0 0.0
2018-Jun-14 06:00N 54°23' E 018°43'0 0.0
2018-Jun-14 05:30N 54°23' E 018°43'0 0.0
2018-Jun-14 05:00N 54°23' E 018°43'0 0.0
2018-Jun-14 04:30N 54°23' E 018°43'0 0.0
2018-Jun-14 04:00N 54°23' E 018°43'0 0.0
2018-Jun-14 03:30N 54°23' E 018°43'0 0.0
2018-Jun-14 03:00N 54°23' E 018°43'0 0.0
2018-Jun-14 02:30N 54°23' E 018°43'0 0.0
2018-Jun-14 02:00N 54°23' E 018°43'0 0.0
2018-Jun-14 01:30N 54°23' E 018°43'0 0.0
2018-Jun-14 01:00N 54°23' E 018°43'0 0.0
2018-Jun-14 00:30N 54°23' E 018°43'0 0.0
2018-Jun-14 00:00N 54°23' E 018°43'0 0.0
2018-Jun-13 23:30N 54°23' E 018°43'0 0.0
2018-Jun-13 23:00N 54°23' E 018°43'0 0.0
2018-Jun-13 22:30N 54°23' E 018°43'0 0.0
2018-Jun-13 22:00N 54°23' E 018°43'0 0.0
2018-Jun-13 21:30N 54°23' E 018°43'0 0.0
2018-Jun-13 21:00N 54°23' E 018°43'0 0.0
2018-Jun-13 20:30N 54°23' E 018°43'0 0.0
2018-Jun-13 20:00N 54°23' E 018°43'0 0.0
2018-Jun-13 19:30N 54°23' E 018°43'0 0.0
2018-Jun-13 19:00N 54°23' E 018°43'0 0.0
2018-Jun-13 18:30N 54°23' E 018°43'0 0.0
2018-Jun-13 18:00N 54°23' E 018°43'0 0.0
2018-Jun-13 17:30N 54°23' E 018°43'0 0.0
2018-Jun-13 17:00N 54°23' E 018°43'0 0.0
2018-Jun-13 16:30N 54°23' E 018°43'2 3.3
2018-Jun-13 16:00N 54°24' E 018°45'4 9.0
2018-Jun-13 15:30N 54°26' E 018°52'713.6
2018-Jun-13 15:00N 54°31' E 019°00'612.6
2018-Jun-13 14:30N 54°37' E 019°04'4 8.7
2018-Jun-13 14:00N 54°41' E 019°05'5 9.6
2018-Jun-13 13:30N 54°45' E 019°11'5 9.5
2018-Jun-13 13:00N 54°48' E 019°17'5 9.4
2018-Jun-13 12:30N 54°51' E 019°23'5 9.4
2018-Jun-13 11:59N 54°55' E 019°29'5 9.3
2018-Jun-13 11:30N 54°58' E 019°35'5 9.3
2018-Jun-13 11:00N 55°01' E 019°40'7 9.3
2018-Jun-13 10:12N 55°06' E 019°50'2 9.4
2018-Jun-13 09:59N 55°08' E 019°52'38 1.1
2018-Jun-12 00:14N 55°38' E 020°34'415.7
2018-Jun-12 00:00N 55°36' E 020°28'  

Dump ship's entire track history